createdAt,value
2022-10-15T00:01:07.575Z,15.30
2022-10-15T00:03:37.577Z,15.40
2022-10-15T00:06:06.678Z,15.30
2022-10-15T00:08:33.601Z,15.40
2022-10-15T00:11:05.971Z,15.30
2022-10-15T00:13:33.312Z,15.40
2022-10-15T00:16:00.815Z,15.30
2022-10-15T00:18:27.637Z,15.30
2022-10-15T00:20:54.475Z,15.30
2022-10-15T00:23:22.055Z,15.30
2022-10-15T00:25:48.850Z,15.40
2022-10-15T00:28:15.922Z,15.40
2022-10-15T00:30:42.679Z,15.40
2022-10-15T00:33:09.520Z,15.50
2022-10-15T00:35:36.330Z,15.50
2022-10-15T00:38:03.436Z,15.50
2022-10-15T00:40:30.296Z,15.60
2022-10-15T00:42:57.035Z,15.60
2022-10-15T00:45:23.840Z,15.60
2022-10-15T00:47:53.001Z,15.70
2022-10-15T00:50:23.487Z,15.70
2022-10-15T00:52:58.975Z,15.80
2022-10-15T00:55:38.837Z,15.70
2022-10-15T01:00:44.522Z,15.70
2022-10-15T01:03:12.809Z,15.70
2022-10-15T01:05:40.744Z,15.70
2022-10-15T01:08:07.474Z,15.70
2022-10-15T01:11:06.181Z,15.70
2022-10-15T01:13:47.059Z,15.60
2022-10-15T01:16:39.669Z,15.50
2022-10-15T01:19:34.008Z,15.60
2022-10-15T01:22:30.870Z,15.50
2022-10-15T01:25:13.246Z,15.50
2022-10-15T01:27:46.099Z,15.50
2022-10-15T01:30:25.911Z,15.50
2022-10-15T01:33:22.870Z,15.50
2022-10-15T01:35:54.096Z,15.60
2022-10-15T01:38:41.077Z,15.60
2022-10-15T01:41:10.440Z,15.60
2022-10-15T01:43:40.277Z,15.60
2022-10-15T01:46:12.852Z,15.60
2022-10-15T01:48:41.885Z,15.60
2022-10-15T01:51:12.363Z,15.60
2022-10-15T01:53:40.348Z,15.60
2022-10-15T01:56:11.614Z,15.60
2022-10-15T01:58:42.114Z,15.60
2022-10-15T02:01:09.829Z,15.50
2022-10-15T02:03:50.918Z,15.50
2022-10-15T02:06:38.821Z,15.50
2022-10-15T02:09:38.247Z,15.60
2022-10-15T02:12:19.788Z,15.50
2022-10-15T02:15:05.268Z,15.50
2022-10-15T02:17:46.078Z,15.50
2022-10-15T02:20:18.750Z,15.50
2022-10-15T02:22:55.494Z,15.50
2022-10-15T02:25:24.756Z,15.50
2022-10-15T02:27:53.885Z,15.50
2022-10-15T02:30:21.041Z,15.50
2022-10-15T02:32:52.435Z,15.40
2022-10-15T02:35:20.618Z,15.40
2022-10-15T02:37:51.337Z,15.40
2022-10-15T02:40:19.048Z,15.40
2022-10-15T02:42:45.814Z,15.40
2022-10-15T02:45:12.547Z,15.40
2022-10-15T02:47:39.271Z,15.50
2022-10-15T02:50:06.435Z,15.40
2022-10-15T02:52:33.144Z,15.50
2022-10-15T02:55:00.129Z,15.50
2022-10-15T02:57:27.244Z,15.50
2022-10-15T02:59:54.133Z,15.50
2022-10-15T03:02:21.016Z,15.50
2022-10-15T03:04:47.771Z,15.50
2022-10-15T03:07:14.730Z,15.50
2022-10-15T03:09:41.478Z,15.60
2022-10-15T03:12:08.610Z,15.60
2022-10-15T03:14:35.558Z,15.60
2022-10-15T03:17:02.360Z,15.70
2022-10-15T03:19:29.049Z,15.70
2022-10-15T03:21:55.736Z,15.70
2022-10-15T03:24:22.541Z,15.70
2022-10-15T03:26:49.388Z,15.70
2022-10-15T03:29:16.263Z,15.70
2022-10-15T03:31:43.039Z,15.70
2022-10-15T03:34:09.803Z,15.80
2022-10-15T03:36:36.548Z,15.70
2022-10-15T03:39:03.419Z,15.80
2022-10-15T03:41:30.120Z,15.70
2022-10-15T03:44:01.808Z,15.70
2022-10-15T03:46:28.543Z,15.70
2022-10-15T03:48:55.279Z,15.70
2022-10-15T03:51:24.622Z,15.60
2022-10-15T03:53:53.993Z,15.70
2022-10-15T03:56:20.750Z,15.70
2022-10-15T03:58:47.498Z,15.70
2022-10-15T04:01:16.962Z,15.60
2022-10-15T04:03:43.833Z,15.50
2022-10-15T04:06:10.991Z,15.50
2022-10-15T04:08:37.730Z,15.40
2022-10-15T04:11:04.457Z,15.40
2022-10-15T04:13:31.530Z,15.30
2022-10-15T04:15:58.308Z,15.30
2022-10-15T04:18:25.232Z,15.20
2022-10-15T04:20:51.947Z,15.20
2022-10-15T04:23:18.709Z,15.20
2022-10-15T04:25:46.229Z,15.10
2022-10-15T04:28:12.928Z,15.00
2022-10-15T04:30:39.613Z,15.00
2022-10-15T04:33:06.423Z,15.00
2022-10-15T04:35:35.090Z,14.90
2022-10-15T04:38:02.443Z,14.90
2022-10-15T04:40:29.247Z,14.90
2022-10-15T04:42:56.123Z,14.80
2022-10-15T04:47:50.553Z,14.70
2022-10-15T04:50:17.385Z,14.70
2022-10-15T04:52:44.261Z,14.70
2022-10-15T04:55:11.158Z,14.70
2022-10-15T04:57:37.944Z,14.70
2022-10-15T05:00:06.090Z,14.70
2022-10-15T05:02:33.210Z,14.80
2022-10-15T05:05:00.029Z,14.80
2022-10-15T05:07:27.217Z,14.90
2022-10-15T05:09:54.192Z,14.90
2022-10-15T05:12:20.926Z,15.00
2022-10-15T05:14:47.713Z,15.00
2022-10-15T05:17:14.473Z,15.00
2022-10-15T05:19:41.236Z,15.00
2022-10-15T05:22:08.028Z,15.00
2022-10-15T05:24:34.878Z,15.00
2022-10-15T05:27:03.045Z,15.00
2022-10-15T05:29:30.364Z,15.00
2022-10-15T05:31:57.063Z,15.00
2022-10-15T05:34:24.697Z,14.90
2022-10-15T05:36:51.655Z,15.00
2022-10-15T05:39:18.963Z,14.90
2022-10-15T05:41:45.766Z,14.90
2022-10-15T05:44:12.582Z,14.90
2022-10-15T05:46:39.453Z,14.90
2022-10-15T05:49:06.173Z,14.90
2022-10-15T05:51:32.900Z,14.90
2022-10-15T05:53:59.801Z,14.90
2022-10-15T05:56:27.633Z,14.80
2022-10-15T05:58:55.331Z,14.80
2022-10-15T06:01:22.371Z,14.80
2022-10-15T06:03:49.362Z,14.90
2022-10-15T06:06:17.606Z,14.90
2022-10-15T06:08:44.601Z,14.90
2022-10-15T06:11:11.594Z,14.90
2022-10-15T06:13:40.000Z,14.90
2022-10-15T06:16:06.957Z,14.90
2022-10-15T06:18:34.099Z,15.00
2022-10-15T06:21:01.411Z,15.00
2022-10-15T06:23:28.256Z,15.00
2022-10-15T06:25:55.075Z,15.00
2022-10-15T06:28:21.936Z,15.00
2022-10-15T06:30:48.934Z,15.10
2022-10-15T06:33:17.119Z,15.10
2022-10-15T06:35:44.139Z,15.10
2022-10-15T06:38:11.295Z,15.10
2022-10-15T06:40:39.505Z,15.20
2022-10-15T06:43:08.236Z,15.10
2022-10-15T06:45:41.659Z,15.20
2022-10-15T06:48:09.101Z,15.20
2022-10-15T06:50:37.938Z,15.20
2022-10-15T06:53:05.457Z,15.20
2022-10-15T06:55:32.390Z,15.30
2022-10-15T06:57:59.445Z,15.30
2022-10-15T07:00:27.784Z,15.30
2022-10-15T07:02:54.745Z,15.30
2022-10-15T07:05:22.107Z,15.40
2022-10-15T07:07:57.639Z,15.40
2022-10-15T07:10:26.499Z,15.50
2022-10-15T07:12:54.943Z,15.50
2022-10-15T07:15:22.306Z,15.50
2022-10-15T07:17:50.969Z,15.50
2022-10-15T07:20:21.795Z,15.50
2022-10-15T07:22:51.788Z,15.60
2022-10-15T07:25:18.565Z,15.60
2022-10-15T07:27:45.318Z,15.70
2022-10-15T07:30:12.125Z,15.80
2022-10-15T07:32:38.887Z,15.80
2022-10-15T07:35:06.116Z,15.80
2022-10-15T07:37:33.381Z,15.80
2022-10-15T07:40:00.294Z,15.80
2022-10-15T07:42:27.508Z,15.90
2022-10-15T07:44:54.312Z,16.00
2022-10-15T07:47:21.335Z,16.00
2022-10-15T07:49:48.189Z,16.20
2022-10-15T07:52:14.973Z,16.20
2022-10-15T07:54:41.800Z,16.20
2022-10-15T07:57:09.205Z,16.20
2022-10-15T07:59:35.993Z,16.30
2022-10-15T08:02:02.933Z,16.60
2022-10-15T08:04:29.872Z,16.70
2022-10-15T08:06:56.598Z,16.60
2022-10-15T08:09:23.401Z,16.60
2022-10-15T08:11:50.167Z,16.40
2022-10-15T08:14:17.762Z,16.60
2022-10-15T08:16:44.699Z,16.50
2022-10-15T08:19:11.621Z,16.40
2022-10-15T08:21:38.362Z,16.30
2022-10-15T08:24:05.918Z,16.20
2022-10-15T08:26:32.672Z,16.10
2022-10-15T08:28:59.487Z,16.10
2022-10-15T08:31:26.465Z,16.30
2022-10-15T08:33:53.615Z,16.20
2022-10-15T08:36:20.482Z,16.40
2022-10-15T08:38:47.217Z,16.40
2022-10-15T08:41:52.151Z,16.20
2022-10-15T08:44:32.134Z,16.30
2022-10-15T08:47:19.862Z,16.40
2022-10-15T08:49:52.130Z,16.50
2022-10-15T08:52:40.867Z,16.50
2022-10-15T08:55:14.822Z,16.60
2022-10-15T08:58:14.995Z,16.60
2022-10-15T09:00:50.322Z,16.70
2022-10-15T09:03:36.575Z,16.70
2022-10-15T09:06:37.410Z,16.70
2022-10-15T09:09:15.922Z,16.70
2022-10-15T09:12:41.136Z,16.80
2022-10-15T09:15:17.186Z,16.90
2022-10-15T09:17:46.884Z,17.00
2022-10-15T09:20:24.992Z,17.00
2022-10-15T09:22:52.316Z,17.10
2022-10-15T09:25:22.382Z,17.10
2022-10-15T09:27:51.206Z,17.20
2022-10-15T09:30:45.577Z,17.30
2022-10-15T09:33:19.947Z,17.20
2022-10-15T09:36:11.098Z,17.30
2022-10-15T09:38:49.991Z,17.30
2022-10-15T09:41:31.849Z,17.40
2022-10-15T09:44:01.823Z,17.40
2022-10-15T09:46:30.344Z,17.50
2022-10-15T09:49:24.495Z,17.50
2022-10-15T09:51:51.320Z,17.40
2022-10-15T09:54:31.748Z,17.30
2022-10-15T09:56:58.623Z,17.30
2022-10-15T09:59:26.529Z,17.50
2022-10-15T10:02:05.459Z,17.50
2022-10-15T10:04:34.612Z,17.40
2022-10-15T10:07:04.619Z,17.50
2022-10-15T10:09:39.204Z,17.60
2022-10-15T10:12:08.754Z,17.80
2022-10-15T10:14:41.560Z,17.90
2022-10-15T10:17:18.569Z,18.10
2022-10-15T10:20:02.119Z,18.30
2022-10-15T10:22:29.230Z,18.20
2022-10-15T10:24:56.015Z,18.30
2022-10-15T10:27:29.991Z,18.20
2022-10-15T10:30:01.407Z,18.40
2022-10-15T10:32:34.346Z,18.40
2022-10-15T10:35:03.494Z,18.30
2022-10-15T10:37:42.082Z,18.10
2022-10-15T10:40:29.965Z,18.10
2022-10-15T10:43:11.796Z,18.00
2022-10-15T10:45:38.882Z,18.20
2022-10-15T10:48:43.941Z,18.20
2022-10-15T10:51:23.272Z,18.40
2022-10-15T10:54:14.463Z,18.30
2022-10-15T10:56:45.135Z,18.10
2022-10-15T10:59:27.188Z,18.20
2022-10-15T11:01:56.685Z,18.10
2022-10-15T11:04:35.907Z,18.40
2022-10-15T11:07:14.804Z,18.50
2022-10-15T11:10:10.511Z,18.60
2022-10-15T11:12:55.453Z,18.60
2022-10-15T11:15:53.672Z,18.50
2022-10-15T11:18:32.230Z,18.90
2022-10-15T11:21:23.132Z,19.10
2022-10-15T11:24:02.421Z,19.10
2022-10-15T11:27:09.552Z,19.20
2022-10-15T11:29:58.337Z,19.20
2022-10-15T11:33:06.310Z,19.20
2022-10-15T11:35:52.847Z,19.20
2022-10-15T11:38:39.572Z,19.30
2022-10-15T11:41:45.923Z,19.10
2022-10-15T11:44:22.431Z,19.00
2022-10-15T11:47:18.561Z,19.00
2022-10-15T11:50:29.547Z,19.10
2022-10-15T11:53:14.394Z,19.50
2022-10-15T11:55:57.060Z,19.50
2022-10-15T11:58:32.674Z,19.30
2022-10-15T12:01:06.760Z,19.40
2022-10-15T12:03:44.624Z,19.40
2022-10-15T12:06:16.365Z,19.40
2022-10-15T12:08:44.458Z,19.30
2022-10-15T12:11:16.920Z,19.30
2022-10-15T12:13:58.686Z,19.40
2022-10-15T12:16:33.671Z,19.40
2022-10-15T12:19:25.464Z,19.30
2022-10-15T12:21:55.065Z,19.30
2022-10-15T12:24:40.735Z,19.30
2022-10-15T12:27:34.959Z,19.10
2022-10-15T12:30:07.383Z,19.10
2022-10-15T12:32:48.809Z,19.10
2022-10-15T12:35:15.667Z,19.00
2022-10-15T12:37:45.001Z,19.10
2022-10-15T12:40:23.816Z,19.20
2022-10-15T12:42:57.740Z,19.20
2022-10-15T12:45:40.673Z,19.10
2022-10-15T12:48:20.995Z,19.40
2022-10-15T12:50:48.032Z,19.30
2022-10-15T12:53:29.918Z,19.40
2022-10-15T12:56:11.458Z,19.20
2022-10-15T12:58:44.285Z,19.10
2022-10-15T13:01:13.887Z,19.20
2022-10-15T13:03:50.542Z,19.20
2022-10-15T13:06:41.516Z,19.00
2022-10-15T13:09:11.419Z,18.90
2022-10-15T13:11:49.286Z,18.70
2022-10-15T13:14:36.879Z,18.60
2022-10-15T13:17:18.330Z,18.60
2022-10-15T13:20:04.679Z,18.40
2022-10-15T13:22:33.932Z,18.40
2022-10-15T13:25:01.419Z,18.30
2022-10-15T13:27:33.392Z,18.20
2022-10-15T13:30:04.304Z,18.10
2022-10-15T13:32:36.926Z,18.10
2022-10-15T13:35:10.998Z,18.10
2022-10-15T13:37:40.343Z,18.10
2022-10-15T13:40:08.514Z,18.10
2022-10-15T13:42:36.102Z,18.10
2022-10-15T13:45:13.833Z,18.10
2022-10-15T13:47:46.708Z,18.10
2022-10-15T13:50:25.833Z,18.00
2022-10-15T13:53:12.348Z,18.10
2022-10-15T13:55:43.978Z,18.10
2022-10-15T13:58:27.474Z,18.10
2022-10-15T14:01:14.765Z,18.30
2022-10-15T14:03:50.308Z,18.40
2022-10-15T14:06:21.786Z,18.40
2022-10-15T14:09:19.229Z,18.30
2022-10-15T14:11:47.236Z,18.20
2022-10-15T14:14:34.184Z,18.10
2022-10-15T14:17:04.482Z,18.20
2022-10-15T14:19:33.701Z,18.20
2022-10-15T14:22:01.504Z,18.10
2022-10-15T14:24:33.432Z,18.10
2022-10-15T14:27:23.316Z,18.10
2022-10-15T14:29:53.841Z,18.10
2022-10-15T14:32:22.675Z,18.10
2022-10-15T14:34:50.830Z,18.10
2022-10-15T14:37:36.212Z,18.10
2022-10-15T14:40:11.533Z,18.00
2022-10-15T14:42:41.570Z,18.10
2022-10-15T14:45:30.004Z,18.10
2022-10-15T14:48:03.119Z,18.10
2022-10-15T14:50:36.059Z,18.10
2022-10-15T14:53:09.790Z,18.00
2022-10-15T14:55:42.714Z,18.00
2022-10-15T14:58:16.448Z,18.10
2022-10-15T15:00:45.585Z,18.10
2022-10-15T15:03:18.298Z,18.10
2022-10-15T15:05:50.166Z,18.20
2022-10-15T15:08:17.017Z,18.20
2022-10-15T15:10:44.965Z,18.20
2022-10-15T15:13:18.134Z,18.20
2022-10-15T15:15:44.921Z,18.20
2022-10-15T15:18:12.130Z,18.20
2022-10-15T15:20:41.683Z,18.30
2022-10-15T15:23:14.898Z,18.20
2022-10-15T15:25:42.104Z,18.30
2022-10-15T15:28:17.479Z,18.20
2022-10-15T15:30:45.718Z,18.20
2022-10-15T15:33:14.332Z,18.20
2022-10-15T15:35:56.398Z,18.20
2022-10-15T15:38:30.904Z,18.20
2022-10-15T15:41:15.988Z,18.30
2022-10-15T15:43:43.552Z,18.30
2022-10-15T15:46:10.871Z,18.40
2022-10-15T15:48:38.221Z,18.30
2022-10-15T15:51:19.915Z,18.30
2022-10-15T15:53:46.756Z,18.30
2022-10-15T15:56:14.107Z,18.40
2022-10-15T15:58:41.041Z,18.40
2022-10-15T16:01:07.862Z,18.40
2022-10-15T16:03:36.303Z,18.30
2022-10-15T16:06:07.123Z,18.30
2022-10-15T16:08:37.657Z,18.30
2022-10-15T16:11:06.164Z,18.20
2022-10-15T16:13:33.695Z,18.20
2022-10-15T16:16:00.504Z,18.20
2022-10-15T16:18:27.295Z,18.20
2022-10-15T16:20:54.797Z,18.20
2022-10-15T16:23:24.770Z,18.20
2022-10-15T16:25:51.893Z,18.20
2022-10-15T16:28:18.819Z,18.20
2022-10-15T16:30:45.649Z,18.30
2022-10-15T16:33:12.448Z,18.30
2022-10-15T16:35:39.175Z,18.20
2022-10-15T16:38:06.395Z,18.20
2022-10-15T16:40:33.786Z,18.20
2022-10-15T16:43:00.644Z,18.20
2022-10-15T16:45:27.707Z,18.00
2022-10-15T16:47:54.549Z,17.80
2022-10-15T16:50:21.463Z,17.70
2022-10-15T16:52:48.331Z,17.70
2022-10-15T16:55:16.706Z,17.70
2022-10-15T16:57:44.504Z,17.70
2022-10-15T17:00:12.052Z,17.80
2022-10-15T17:02:38.986Z,17.70
2022-10-15T17:05:06.388Z,17.70
2022-10-15T17:07:33.133Z,17.60
2022-10-15T17:10:00.354Z,17.60
2022-10-15T17:12:27.918Z,17.50
2022-10-15T17:14:55.477Z,17.50
2022-10-15T17:17:22.460Z,17.50
2022-10-15T17:19:49.241Z,17.50
2022-10-15T17:22:16.214Z,17.40
2022-10-15T17:24:43.355Z,17.50
2022-10-15T17:27:10.131Z,17.50
2022-10-15T17:32:04.111Z,17.50
2022-10-15T17:34:31.269Z,17.60
2022-10-15T17:36:58.302Z,17.60
2022-10-15T17:39:25.142Z,17.60
2022-10-15T17:41:52.602Z,17.60
2022-10-15T17:44:20.265Z,17.60
2022-10-15T17:49:19.091Z,17.70
2022-10-15T17:51:46.842Z,17.70
2022-10-15T17:54:13.918Z,17.70
2022-10-15T17:56:41.331Z,17.70
2022-10-15T17:59:10.705Z,17.70
2022-10-15T18:04:31.132Z,17.60
2022-10-15T18:06:57.997Z,17.60
2022-10-15T18:09:26.744Z,17.60
2022-10-15T18:11:53.943Z,17.70
2022-10-15T18:16:48.198Z,17.80
2022-10-15T18:19:15.145Z,17.80
2022-10-15T18:21:45.646Z,17.80
2022-10-15T18:24:15.814Z,17.90
2022-10-15T18:26:44.311Z,17.80
2022-10-15T18:29:11.316Z,17.80
2022-10-15T18:31:38.249Z,17.80
2022-10-15T18:34:05.005Z,17.70
2022-10-15T18:36:32.329Z,17.70
2022-10-15T18:38:59.852Z,17.70
2022-10-15T18:41:33.671Z,17.80
2022-10-15T18:44:06.506Z,17.70
2022-10-15T18:46:34.905Z,17.70
2022-10-15T18:49:02.347Z,17.60
2022-10-15T18:51:29.542Z,17.60
2022-10-15T18:53:56.361Z,17.50
2022-10-15T18:56:23.452Z,17.40
2022-10-15T18:58:52.533Z,17.30
2022-10-15T19:01:24.593Z,17.20
2022-10-15T19:03:52.627Z,17.20
2022-10-15T19:06:21.942Z,17.10
2022-10-15T19:08:49.779Z,17.20
2022-10-15T19:11:17.375Z,17.20
2022-10-15T19:13:44.167Z,17.20
2022-10-15T19:16:11.485Z,17.20
2022-10-15T19:18:38.422Z,17.20
2022-10-15T19:21:06.027Z,17.10
2022-10-15T19:23:33.953Z,17.00
2022-10-15T19:26:02.452Z,17.00
2022-10-15T19:28:29.346Z,16.90
2022-10-15T19:30:57.692Z,16.80
2022-10-15T19:33:25.725Z,16.70
2022-10-15T19:35:53.065Z,16.60
2022-10-15T19:38:22.857Z,16.40
2022-10-15T19:40:52.630Z,16.30
2022-10-15T19:43:21.049Z,16.20
2022-10-15T19:45:48.368Z,16.10
2022-10-15T19:48:17.439Z,16.10
2022-10-15T19:50:45.870Z,15.90
2022-10-15T19:53:16.450Z,15.90
2022-10-15T19:55:54.535Z,15.80
2022-10-15T19:58:21.484Z,15.80
2022-10-15T20:00:52.364Z,15.70
2022-10-15T20:03:20.606Z,15.70
2022-10-15T20:05:47.926Z,15.70
2022-10-15T20:08:15.926Z,15.60
2022-10-15T20:10:44.723Z,15.60
2022-10-15T20:13:13.528Z,15.50
2022-10-15T20:15:45.211Z,15.50
2022-10-15T20:18:13.005Z,15.40
2022-10-15T20:20:42.432Z,15.50
2022-10-15T20:23:09.634Z,15.40
2022-10-15T20:25:40.604Z,15.30
2022-10-15T20:28:07.420Z,15.30
2022-10-15T20:30:35.843Z,15.20
2022-10-15T20:33:02.566Z,15.10
2022-10-15T20:35:32.209Z,15.10
2022-10-15T20:37:58.964Z,15.00
2022-10-15T20:40:25.847Z,15.00
2022-10-15T20:42:55.407Z,14.80
2022-10-15T20:45:23.297Z,14.80
2022-10-15T20:47:53.579Z,14.70
2022-10-15T20:50:26.530Z,14.70
2022-10-15T20:52:55.424Z,14.70
2022-10-15T20:55:22.810Z,14.60
2022-10-15T20:57:50.259Z,14.60
2022-10-15T21:00:17.330Z,14.50
2022-10-15T21:02:44.084Z,14.50
2022-10-15T21:05:10.858Z,14.50
2022-10-15T21:07:37.672Z,14.50
2022-10-15T21:10:05.046Z,14.40
2022-10-15T21:12:31.879Z,14.40
2022-10-15T21:14:58.618Z,14.40
2022-10-15T21:17:25.699Z,14.50
2022-10-15T21:19:53.113Z,14.50
2022-10-15T21:22:20.498Z,14.50
2022-10-15T21:24:47.284Z,14.40
2022-10-15T21:27:14.037Z,14.40
2022-10-15T21:29:42.445Z,14.30
2022-10-15T21:32:09.631Z,14.30
2022-10-15T21:34:36.484Z,14.30
2022-10-15T21:37:03.433Z,14.30
2022-10-15T21:39:30.260Z,14.30
2022-10-15T21:41:57.089Z,14.30
2022-10-15T21:44:23.830Z,14.30
2022-10-15T21:46:50.667Z,14.20
2022-10-15T21:49:17.464Z,14.30
2022-10-15T21:51:44.403Z,14.20
2022-10-15T21:54:11.457Z,14.20
2022-10-15T21:56:38.533Z,14.20
2022-10-15T21:59:06.098Z,14.20
2022-10-15T22:01:35.370Z,14.10
2022-10-15T22:04:05.156Z,14.20
2022-10-15T22:06:32.491Z,14.20
2022-10-15T22:08:59.877Z,14.20
2022-10-15T22:11:29.122Z,14.20
2022-10-15T22:13:58.604Z,14.20
2022-10-15T22:16:27.592Z,14.30
2022-10-15T22:18:55.764Z,14.30
2022-10-15T22:21:28.653Z,14.30
2022-10-15T22:24:00.983Z,14.30
2022-10-15T22:26:34.896Z,14.40
2022-10-15T22:29:03.354Z,14.30
2022-10-15T22:31:30.525Z,14.30
2022-10-15T22:34:00.179Z,14.30
2022-10-15T22:36:29.633Z,14.30
2022-10-15T22:39:01.680Z,14.30
2022-10-15T22:41:30.656Z,14.30
2022-10-15T22:43:57.997Z,14.30
2022-10-15T22:46:25.497Z,14.20
2022-10-15T22:48:53.609Z,14.30
2022-10-15T22:51:21.293Z,14.20
2022-10-15T22:53:48.304Z,14.20
2022-10-15T22:56:17.676Z,14.20
2022-10-15T22:58:45.483Z,14.20
2022-10-15T23:01:14.142Z,14.30
2022-10-15T23:03:43.068Z,14.30
2022-10-15T23:06:10.218Z,14.30
2022-10-15T23:08:38.117Z,14.30
2022-10-15T23:11:10.171Z,14.30
2022-10-15T23:13:38.194Z,14.40
2022-10-15T23:16:06.660Z,14.50
2022-10-15T23:18:33.665Z,14.50
2022-10-15T23:21:10.639Z,14.40
2022-10-15T23:23:37.527Z,14.30
2022-10-15T23:26:04.336Z,14.30
2022-10-15T23:28:31.147Z,14.30
2022-10-15T23:30:57.935Z,14.30
2022-10-15T23:33:24.841Z,14.40
2022-10-15T23:35:59.727Z,14.40
2022-10-15T23:38:28.105Z,14.40
2022-10-15T23:41:02.839Z,14.50
2022-10-15T23:43:30.342Z,14.50
2022-10-15T23:45:57.664Z,14.50
2022-10-15T23:48:25.572Z,14.50
2022-10-15T23:50:52.499Z,14.40
2022-10-15T23:53:19.653Z,14.40
2022-10-15T23:55:47.024Z,14.40
2022-10-15T23:58:14.128Z,14.40
